sensor_id;sensor_type;location;lat;lon;timestamp;P1;durP1;ratioP1;P2;durP2;ratioP2
12774;SDS011;6451;42.630;23.382;2024-02-23T00:00:13;17.73;;;13.73;;
12774;SDS011;6451;42.630;23.382;2024-02-23T00:02:43;18.80;;;14.07;;
12774;SDS011;6451;42.630;23.382;2024-02-23T00:05:13;17.20;;;13.03;;
12774;SDS011;6451;42.630;23.382;2024-02-23T00:07:44;17.37;;;13.03;;
12774;SDS011;6451;42.630;23.382;2024-02-23T00:10:14;17.37;;;13.17;;
12774;SDS011;6451;42.630;23.382;2024-02-23T00:12:42;17.23;;;12.43;;
12774;SDS011;6451;42.630;23.382;2024-02-23T00:15:10;15.00;;;11.67;;
12774;SDS011;6451;42.630;23.382;2024-02-23T00:17:44;15.73;;;11.87;;
12774;SDS011;6451;42.630;23.382;2024-02-23T00:20:12;18.50;;;11.83;;
12774;SDS011;6451;42.630;23.382;2024-02-23T00:22:40;16.33;;;12.47;;
12774;SDS011;6451;42.630;23.382;2024-02-23T00:25:07;18.97;;;12.40;;
12774;SDS011;6451;42.630;23.382;2024-02-23T00:27:36;16.30;;;12.50;;
12774;SDS011;6451;42.630;23.382;2024-02-23T00:30:05;17.03;;;12.67;;
12774;SDS011;6451;42.630;23.382;2024-02-23T00:32:32;17.37;;;11.73;;
12774;SDS011;6451;42.630;23.382;2024-02-23T00:34:59;16.10;;;11.97;;
12774;SDS011;6451;42.630;23.382;2024-02-23T00:37:26;14.40;;;11.27;;
12774;SDS011;6451;42.630;23.382;2024-02-23T00:39:53;16.50;;;11.70;;
12774;SDS011;6451;42.630;23.382;2024-02-23T00:42:21;13.87;;;11.30;;
12774;SDS011;6451;42.630;23.382;2024-02-23T00:44:50;15.13;;;11.00;;
12774;SDS011;6451;42.630;23.382;2024-02-23T00:47:17;13.17;;;11.03;;
12774;SDS011;6451;42.630;23.382;2024-02-23T00:49:45;18.03;;;11.40;;
12774;SDS011;6451;42.630;23.382;2024-02-23T00:52:12;16.03;;;11.20;;
12774;SDS011;6451;42.630;23.382;2024-02-23T00:54:39;14.03;;;11.57;;
12774;SDS011;6451;42.630;23.382;2024-02-23T00:57:06;17.10;;;11.60;;
12774;SDS011;6451;42.630;23.382;2024-02-23T00:59:33;15.63;;;12.13;;
12774;SDS011;6451;42.630;23.382;2024-02-23T01:02:02;16.30;;;11.37;;
12774;SDS011;6451;42.630;23.382;2024-02-23T01:04:30;15.03;;;11.87;;
12774;SDS011;6451;42.630;23.382;2024-02-23T01:06:57;15.80;;;11.93;;
12774;SDS011;6451;42.630;23.382;2024-02-23T01:09:25;15.40;;;11.83;;
12774;SDS011;6451;42.630;23.382;2024-02-23T01:11:52;16.17;;;12.20;;
12774;SDS011;6451;42.630;23.382;2024-02-23T01:14:20;15.70;;;11.27;;
12774;SDS011;6451;42.630;23.382;2024-02-23T01:16:47;14.23;;;11.60;;
12774;SDS011;6451;42.630;23.382;2024-02-23T01:19:19;16.93;;;12.40;;
12774;SDS011;6451;42.630;23.382;2024-02-23T01:21:46;16.47;;;11.90;;
12774;SDS011;6451;42.630;23.382;2024-02-23T01:24:14;14.23;;;11.37;;
12774;SDS011;6451;42.630;23.382;2024-02-23T01:26:42;14.90;;;11.70;;
12774;SDS011;6451;42.630;23.382;2024-02-23T01:29:10;15.17;;;11.67;;
12774;SDS011;6451;42.630;23.382;2024-02-23T01:31:37;14.97;;;10.80;;
12774;SDS011;6451;42.630;23.382;2024-02-23T01:34:04;13.20;;;10.47;;
12774;SDS011;6451;42.630;23.382;2024-02-23T01:36:33;13.37;;;10.90;;
12774;SDS011;6451;42.630;23.382;2024-02-23T01:39:02;15.00;;;10.87;;
12774;SDS011;6451;42.630;23.382;2024-02-23T01:41:30;14.13;;;10.53;;
12774;SDS011;6451;42.630;23.382;2024-02-23T01:43:57;14.80;;;11.27;;
12774;SDS011;6451;42.630;23.382;2024-02-23T01:46:24;15.13;;;10.67;;
12774;SDS011;6451;42.630;23.382;2024-02-23T01:48:52;12.90;;;11.13;;
12774;SDS011;6451;42.630;23.382;2024-02-23T01:51:19;15.13;;;10.93;;
12774;SDS011;6451;42.630;23.382;2024-02-23T01:53:50;13.83;;;11.00;;
12774;SDS011;6451;42.630;23.382;2024-02-23T01:56:18;11.90;;;10.53;;
12774;SDS011;6451;42.630;23.382;2024-02-23T01:58:46;13.63;;;11.03;;
12774;SDS011;6451;42.630;23.382;2024-02-23T02:01:13;15.37;;;11.43;;
12774;SDS011;6451;42.630;23.382;2024-02-23T02:03:40;14.33;;;10.73;;
12774;SDS011;6451;42.630;23.382;2024-02-23T02:06:10;12.97;;;10.30;;
12774;SDS011;6451;42.630;23.382;2024-02-23T02:08:38;13.20;;;10.30;;
12774;SDS011;6451;42.630;23.382;2024-02-23T02:11:07;13.43;;;10.93;;
12774;SDS011;6451;42.630;23.382;2024-02-23T02:13:33;14.00;;;11.07;;
12774;SDS011;6451;42.630;23.382;2024-02-23T02:16:02;13.33;;;11.07;;
12774;SDS011;6451;42.630;23.382;2024-02-23T02:18:29;14.97;;;11.20;;
12774;SDS011;6451;42.630;23.382;2024-02-23T02:20:56;12.63;;;10.73;;
12774;SDS011;6451;42.630;23.382;2024-02-23T02:23:24;12.93;;;10.80;;
12774;SDS011;6451;42.630;23.382;2024-02-23T02:25:52;13.93;;;10.40;;
12774;SDS011;6451;42.630;23.382;2024-02-23T02:28:22;14.80;;;10.70;;
12774;SDS011;6451;42.630;23.382;2024-02-23T02:30:50;12.77;;;10.60;;
12774;SDS011;6451;42.630;23.382;2024-02-23T02:33:18;13.47;;;10.67;;
12774;SDS011;6451;42.630;23.382;2024-02-23T02:35:45;16.27;;;10.83;;
12774;SDS011;6451;42.630;23.382;2024-02-23T02:38:13;13.03;;;10.47;;
12774;SDS011;6451;42.630;23.382;2024-02-23T02:40:41;15.33;;;11.20;;
12774;SDS011;6451;42.630;23.382;2024-02-23T02:43:08;13.97;;;10.90;;
12774;SDS011;6451;42.630;23.382;2024-02-23T02:45:37;13.47;;;10.20;;
12774;SDS011;6451;42.630;23.382;2024-02-23T02:48:05;14.13;;;10.73;;
12774;SDS011;6451;42.630;23.382;2024-02-23T02:50:33;14.80;;;10.57;;
12774;SDS011;6451;42.630;23.382;2024-02-23T02:53:01;13.43;;;10.50;;
12774;SDS011;6451;42.630;23.382;2024-02-23T02:55:30;14.70;;;11.03;;
12774;SDS011;6451;42.630;23.382;2024-02-23T02:57:57;14.53;;;10.80;;
12774;SDS011;6451;42.630;23.382;2024-02-23T03:00:24;15.37;;;11.20;;
12774;SDS011;6451;42.630;23.382;2024-02-23T03:02:55;12.80;;;10.53;;
12774;SDS011;6451;42.630;23.382;2024-02-23T03:05:22;15.33;;;10.60;;
12774;SDS011;6451;42.630;23.382;2024-02-23T03:07:49;13.50;;;10.30;;
12774;SDS011;6451;42.630;23.382;2024-02-23T03:10:16;15.07;;;10.67;;
12774;SDS011;6451;42.630;23.382;2024-02-23T03:12:43;12.83;;;10.40;;
12774;SDS011;6451;42.630;23.382;2024-02-23T03:15:10;11.83;;;9.87;;
12774;SDS011;6451;42.630;23.382;2024-02-23T03:17:38;14.03;;;10.50;;
12774;SDS011;6451;42.630;23.382;2024-02-23T03:20:08;11.40;;;8.90;;
12774;SDS011;6451;42.630;23.382;2024-02-23T03:22:36;13.47;;;10.00;;
12774;SDS011;6451;42.630;23.382;2024-02-23T03:25:05;11.87;;;9.63;;
12774;SDS011;6451;42.630;23.382;2024-02-23T03:27:35;12.43;;;10.13;;
12774;SDS011;6451;42.630;23.382;2024-02-23T03:30:03;12.70;;;9.50;;
12774;SDS011;6451;42.630;23.382;2024-02-23T03:32:33;12.00;;;10.03;;
12774;SDS011;6451;42.630;23.382;2024-02-23T03:35:02;15.80;;;10.83;;
12774;SDS011;6451;42.630;23.382;2024-02-23T03:37:31;12.50;;;9.43;;
12774;SDS011;6451;42.630;23.382;2024-02-23T03:39:58;12.67;;;10.20;;
12774;SDS011;6451;42.630;23.382;2024-02-23T03:42:26;15.60;;;10.40;;
12774;SDS011;6451;42.630;23.382;2024-02-23T03:44:54;12.80;;;9.77;;
12774;SDS011;6451;42.630;23.382;2024-02-23T03:47:21;12.77;;;9.67;;
12774;SDS011;6451;42.630;23.382;2024-02-23T03:49:48;13.80;;;10.60;;
12774;SDS011;6451;42.630;23.382;2024-02-23T03:52:17;12.80;;;10.17;;
12774;SDS011;6451;42.630;23.382;2024-02-23T03:54:46;11.40;;;9.43;;
12774;SDS011;6451;42.630;23.382;2024-02-23T03:57:17;11.67;;;9.97;;
12774;SDS011;6451;42.630;23.382;2024-02-23T03:59:51;11.23;;;9.77;;
12774;SDS011;6451;42.630;23.382;2024-02-23T04:02:18;12.77;;;10.27;;
12774;SDS011;6451;42.630;23.382;2024-02-23T04:04:47;12.97;;;9.60;;
12774;SDS011;6451;42.630;23.382;2024-02-23T04:07:14;11.27;;;9.30;;
12774;SDS011;6451;42.630;23.382;2024-02-23T04:09:41;12.57;;;9.57;;
12774;SDS011;6451;42.630;23.382;2024-02-23T04:12:10;11.87;;;10.27;;
12774;SDS011;6451;42.630;23.382;2024-02-23T04:14:37;12.23;;;10.23;;
12774;SDS011;6451;42.630;23.382;2024-02-23T04:17:05;12.37;;;9.83;;
12774;SDS011;6451;42.630;23.382;2024-02-23T04:19:32;13.67;;;10.47;;
12774;SDS011;6451;42.630;23.382;2024-02-23T04:21:59;13.90;;;9.80;;
12774;SDS011;6451;42.630;23.382;2024-02-23T04:24:26;12.83;;;10.33;;
12774;SDS011;6451;42.630;23.382;2024-02-23T04:26:54;12.43;;;10.20;;
12774;SDS011;6451;42.630;23.382;2024-02-23T04:29:23;11.63;;;10.00;;
12774;SDS011;6451;42.630;23.382;2024-02-23T04:31:50;12.17;;;9.20;;
12774;SDS011;6451;42.630;23.382;2024-02-23T04:34:18;11.80;;;9.80;;
12774;SDS011;6451;42.630;23.382;2024-02-23T04:36:47;13.00;;;10.23;;
12774;SDS011;6451;42.630;23.382;2024-02-23T04:39:14;12.43;;;9.67;;
12774;SDS011;6451;42.630;23.382;2024-02-23T04:41:42;12.03;;;9.93;;
12774;SDS011;6451;42.630;23.382;2024-02-23T04:44:11;14.43;;;10.57;;
12774;SDS011;6451;42.630;23.382;2024-02-23T04:46:40;14.33;;;10.30;;
12774;SDS011;6451;42.630;23.382;2024-02-23T04:49:07;13.53;;;10.27;;
12774;SDS011;6451;42.630;23.382;2024-02-23T04:51:37;12.77;;;10.20;;
12774;SDS011;6451;42.630;23.382;2024-02-23T04:54:03;12.10;;;9.60;;
12774;SDS011;6451;42.630;23.382;2024-02-23T04:56:31;16.20;;;9.70;;
12774;SDS011;6451;42.630;23.382;2024-02-23T04:59:02;13.03;;;9.63;;
12774;SDS011;6451;42.630;23.382;2024-02-23T05:01:34;11.03;;;9.70;;
12774;SDS011;6451;42.630;23.382;2024-02-23T05:04:04;15.07;;;11.13;;
12774;SDS011;6451;42.630;23.382;2024-02-23T05:06:31;15.07;;;10.60;;
12774;SDS011;6451;42.630;23.382;2024-02-23T05:08:58;14.37;;;11.23;;
12774;SDS011;6451;42.630;23.382;2024-02-23T05:11:28;15.93;;;10.60;;
12774;SDS011;6451;42.630;23.382;2024-02-23T05:13:55;13.87;;;10.63;;
12774;SDS011;6451;42.630;23.382;2024-02-23T05:16:22;12.73;;;10.60;;
12774;SDS011;6451;42.630;23.382;2024-02-23T05:18:50;15.67;;;10.67;;
12774;SDS011;6451;42.630;23.382;2024-02-23T05:21:19;13.17;;;10.47;;
12774;SDS011;6451;42.630;23.382;2024-02-23T05:23:48;16.13;;;10.50;;
12774;SDS011;6451;42.630;23.382;2024-02-23T05:26:20;14.97;;;10.37;;
12774;SDS011;6451;42.630;23.382;2024-02-23T05:28:48;13.03;;;9.47;;
12774;SDS011;6451;42.630;23.382;2024-02-23T05:31:16;15.07;;;10.03;;
12774;SDS011;6451;42.630;23.382;2024-02-23T05:33:45;15.37;;;10.73;;
12774;SDS011;6451;42.630;23.382;2024-02-23T05:36:13;12.27;;;9.53;;
12774;SDS011;6451;42.630;23.382;2024-02-23T05:38:47;10.93;;;9.50;;
12774;SDS011;6451;42.630;23.382;2024-02-23T05:41:18;12.07;;;9.67;;
12774;SDS011;6451;42.630;23.382;2024-02-23T05:43:46;12.53;;;9.63;;
12774;SDS011;6451;42.630;23.382;2024-02-23T05:46:14;14.17;;;10.20;;
12774;SDS011;6451;42.630;23.382;2024-02-23T05:48:44;12.43;;;10.20;;
12774;SDS011;6451;42.630;23.382;2024-02-23T05:51:12;15.30;;;10.30;;
12774;SDS011;6451;42.630;23.382;2024-02-23T05:53:40;13.43;;;10.93;;
12774;SDS011;6451;42.630;23.382;2024-02-23T05:56:10;16.23;;;10.73;;
12774;SDS011;6451;42.630;23.382;2024-02-23T05:58:39;13.50;;;10.63;;
12774;SDS011;6451;42.630;23.382;2024-02-23T06:01:08;16.43;;;11.20;;
12774;SDS011;6451;42.630;23.382;2024-02-23T06:03:37;14.03;;;10.60;;
12774;SDS011;6451;42.630;23.382;2024-02-23T06:06:06;16.13;;;10.93;;
12774;SDS011;6451;42.630;23.382;2024-02-23T06:08:36;14.33;;;10.70;;
12774;SDS011;6451;42.630;23.382;2024-02-23T06:11:05;16.43;;;11.43;;
12774;SDS011;6451;42.630;23.382;2024-02-23T06:13:34;13.53;;;10.60;;
12774;SDS011;6451;42.630;23.382;2024-02-23T06:16:03;17.07;;;11.20;;
12774;SDS011;6451;42.630;23.382;2024-02-23T06:18:42;15.77;;;11.63;;
12774;SDS011;6451;42.630;23.382;2024-02-23T06:21:15;14.67;;;11.17;;
12774;SDS011;6451;42.630;23.382;2024-02-23T06:23:47;16.13;;;11.20;;
12774;SDS011;6451;42.630;23.382;2024-02-23T06:26:20;13.53;;;11.33;;
12774;SDS011;6451;42.630;23.382;2024-02-23T06:28:49;18.20;;;12.00;;
12774;SDS011;6451;42.630;23.382;2024-02-23T06:31:16;16.53;;;12.37;;
12774;SDS011;6451;42.630;23.382;2024-02-23T06:33:47;14.53;;;11.13;;
12774;SDS011;6451;42.630;23.382;2024-02-23T06:36:16;17.03;;;12.07;;
12774;SDS011;6451;42.630;23.382;2024-02-23T06:38:43;14.70;;;12.00;;
12774;SDS011;6451;42.630;23.382;2024-02-23T06:41:11;18.20;;;12.00;;
12774;SDS011;6451;42.630;23.382;2024-02-23T06:43:39;17.63;;;11.30;;
12774;SDS011;6451;42.630;23.382;2024-02-23T06:46:08;12.63;;;10.47;;
12774;SDS011;6451;42.630;23.382;2024-02-23T06:48:35;15.67;;;11.90;;
12774;SDS011;6451;42.630;23.382;2024-02-23T06:51:03;16.23;;;11.20;;
12774;SDS011;6451;42.630;23.382;2024-02-23T06:53:30;14.87;;;11.80;;
12774;SDS011;6451;42.630;23.382;2024-02-23T06:55:59;15.93;;;11.13;;
12774;SDS011;6451;42.630;23.382;2024-02-23T06:58:29;14.53;;;11.00;;
12774;SDS011;6451;42.630;23.382;2024-02-23T07:00:56;12.93;;;10.73;;
12774;SDS011;6451;42.630;23.382;2024-02-23T07:03:25;13.37;;;10.37;;
12774;SDS011;6451;42.630;23.382;2024-02-23T07:05:52;13.90;;;10.23;;
12774;SDS011;6451;42.630;23.382;2024-02-23T07:08:21;13.47;;;10.50;;
12774;SDS011;6451;42.630;23.382;2024-02-23T07:10:49;11.83;;;9.53;;
12774;SDS011;6451;42.630;23.382;2024-02-23T07:13:16;11.80;;;10.40;;
12774;SDS011;6451;42.630;23.382;2024-02-23T07:15:46;14.63;;;10.87;;
12774;SDS011;6451;42.630;23.382;2024-02-23T07:18:16;13.00;;;10.87;;
12774;SDS011;6451;42.630;23.382;2024-02-23T07:20:46;14.83;;;11.50;;
12774;SDS011;6451;42.630;23.382;2024-02-23T07:23:13;14.67;;;11.03;;
12774;SDS011;6451;42.630;23.382;2024-02-23T07:25:42;15.23;;;11.83;;
12774;SDS011;6451;42.630;23.382;2024-02-23T07:28:09;14.13;;;10.87;;
12774;SDS011;6451;42.630;23.382;2024-02-23T07:30:37;14.77;;;12.30;;
12774;SDS011;6451;42.630;23.382;2024-02-23T07:33:04;18.50;;;12.83;;
12774;SDS011;6451;42.630;23.382;2024-02-23T07:35:31;19.47;;;12.67;;
12774;SDS011;6451;42.630;23.382;2024-02-23T07:38:00;19.97;;;13.63;;
12774;SDS011;6451;42.630;23.382;2024-02-23T07:40:27;18.70;;;14.33;;
12774;SDS011;6451;42.630;23.382;2024-02-23T07:42:54;18.93;;;14.30;;
12774;SDS011;6451;42.630;23.382;2024-02-23T07:45:23;18.90;;;13.97;;
12774;SDS011;6451;42.630;23.382;2024-02-23T07:47:58;18.23;;;14.00;;
12774;SDS011;6451;42.630;23.382;2024-02-23T07:50:28;18.20;;;13.47;;
12774;SDS011;6451;42.630;23.382;2024-02-23T07:52:58;20.93;;;14.03;;
12774;SDS011;6451;42.630;23.382;2024-02-23T07:55:29;19.93;;;14.00;;
12774;SDS011;6451;42.630;23.382;2024-02-23T07:57:58;16.23;;;12.73;;
12774;SDS011;6451;42.630;23.382;2024-02-23T08:00:26;19.00;;;13.80;;
12774;SDS011;6451;42.630;23.382;2024-02-23T08:02:53;17.27;;;13.37;;
12774;SDS011;6451;42.630;23.382;2024-02-23T08:05:21;18.60;;;13.37;;
12774;SDS011;6451;42.630;23.382;2024-02-23T08:07:49;17.47;;;12.83;;
12774;SDS011;6451;42.630;23.382;2024-02-23T08:10:19;16.67;;;12.83;;
12774;SDS011;6451;42.630;23.382;2024-02-23T08:12:51;15.43;;;12.33;;
12774;SDS011;6451;42.630;23.382;2024-02-23T08:15:20;18.70;;;12.80;;
12774;SDS011;6451;42.630;23.382;2024-02-23T08:17:49;17.80;;;11.67;;
12774;SDS011;6451;42.630;23.382;2024-02-23T08:20:19;13.07;;;10.67;;
12774;SDS011;6451;42.630;23.382;2024-02-23T08:22:51;14.47;;;9.83;;
12774;SDS011;6451;42.630;23.382;2024-02-23T08:25:24;13.83;;;9.70;;
12774;SDS011;6451;42.630;23.382;2024-02-23T08:27:54;12.47;;;9.57;;
12774;SDS011;6451;42.630;23.382;2024-02-23T08:30:24;11.73;;;9.07;;
12774;SDS011;6451;42.630;23.382;2024-02-23T08:32:52;13.23;;;9.17;;
12774;SDS011;6451;42.630;23.382;2024-02-23T08:35:21;9.60;;;8.63;;
12774;SDS011;6451;42.630;23.382;2024-02-23T08:37:50;11.27;;;8.37;;
12774;SDS011;6451;42.630;23.382;2024-02-23T08:40:18;9.83;;;8.50;;
12774;SDS011;6451;42.630;23.382;2024-02-23T08:42:51;10.77;;;7.87;;
12774;SDS011;6451;42.630;23.382;2024-02-23T08:45:19;11.90;;;8.13;;
12774;SDS011;6451;42.630;23.382;2024-02-23T08:47:48;10.77;;;8.00;;
12774;SDS011;6451;42.630;23.382;2024-02-23T08:50:17;9.13;;;7.70;;
12774;SDS011;6451;42.630;23.382;2024-02-23T08:52:46;8.23;;;7.30;;
12774;SDS011;6451;42.630;23.382;2024-02-23T08:55:16;9.40;;;8.00;;
12774;SDS011;6451;42.630;23.382;2024-02-23T08:57:44;11.93;;;7.80;;
12774;SDS011;6451;42.630;23.382;2024-02-23T09:00:17;10.77;;;8.80;;
12774;SDS011;6451;42.630;23.382;2024-02-23T09:02:45;10.73;;;8.77;;
12774;SDS011;6451;42.630;23.382;2024-02-23T09:05:15;11.53;;;8.40;;
12774;SDS011;6451;42.630;23.382;2024-02-23T09:07:48;12.53;;;8.97;;
12774;SDS011;6451;42.630;23.382;2024-02-23T09:10:17;10.40;;;8.70;;
12774;SDS011;6451;42.630;23.382;2024-02-23T09:12:44;9.80;;;8.10;;
12774;SDS011;6451;42.630;23.382;2024-02-23T09:15:14;12.77;;;7.80;;
12774;SDS011;6451;42.630;23.382;2024-02-23T09:17:47;11.63;;;7.93;;
12774;SDS011;6451;42.630;23.382;2024-02-23T09:20:15;8.73;;;7.77;;
12774;SDS011;6451;42.630;23.382;2024-02-23T09:22:44;11.33;;;7.00;;
12774;SDS011;6451;42.630;23.382;2024-02-23T09:25:13;10.57;;;7.30;;
12774;SDS011;6451;42.630;23.382;2024-02-23T09:27:40;6.53;;;5.20;;
12774;SDS011;6451;42.630;23.382;2024-02-23T09:30:11;9.87;;;5.80;;
12774;SDS011;6451;42.630;23.382;2024-02-23T09:32:41;6.93;;;5.93;;
12774;SDS011;6451;42.630;23.382;2024-02-23T09:35:09;9.40;;;6.50;;
12774;SDS011;6451;42.630;23.382;2024-02-23T09:37:39;10.27;;;6.40;;
12774;SDS011;6451;42.630;23.382;2024-02-23T09:40:07;6.97;;;5.90;;
12774;SDS011;6451;42.630;23.382;2024-02-23T09:42:35;8.23;;;5.73;;
12774;SDS011;6451;42.630;23.382;2024-02-23T09:45:04;7.90;;;6.33;;
12774;SDS011;6451;42.630;23.382;2024-02-23T09:47:43;6.57;;;5.50;;
12774;SDS011;6451;42.630;23.382;2024-02-23T09:50:11;8.03;;;5.80;;
12774;SDS011;6451;42.630;23.382;2024-02-23T09:52:50;6.97;;;4.90;;
12774;SDS011;6451;42.630;23.382;2024-02-23T09:55:22;6.27;;;5.57;;
12774;SDS011;6451;42.630;23.382;2024-02-23T09:58:04;8.27;;;4.60;;
12774;SDS011;6451;42.630;23.382;2024-02-23T10:00:38;5.70;;;4.90;;
12774;SDS011;6451;42.630;23.382;2024-02-23T10:03:10;12.63;;;4.90;;
12774;SDS011;6451;42.630;23.382;2024-02-23T10:05:38;4.30;;;3.90;;
12774;SDS011;6451;42.630;23.382;2024-02-23T10:08:06;5.83;;;4.07;;
12774;SDS011;6451;42.630;23.382;2024-02-23T10:10:35;3.00;;;2.70;;
12774;SDS011;6451;42.630;23.382;2024-02-23T10:13:04;3.05;;;2.67;;
12774;SDS011;6451;42.630;23.382;2024-02-23T10:15:33;8.00;;;4.63;;
12774;SDS011;6451;42.630;23.382;2024-02-23T10:18:06;5.78;;;4.13;;
12774;SDS011;6451;42.630;23.382;2024-02-23T10:20:37;4.93;;;4.00;;
12774;SDS011;6451;42.630;23.382;2024-02-23T10:23:10;5.70;;;3.60;;
12774;SDS011;6451;42.630;23.382;2024-02-23T10:25:40;5.55;;;4.22;;
12774;SDS011;6451;42.630;23.382;2024-02-23T10:28:10;4.90;;;3.50;;
12774;SDS011;6451;42.630;23.382;2024-02-23T10:30:42;4.38;;;3.65;;
12774;SDS011;6451;42.630;23.382;2024-02-23T10:33:12;4.22;;;3.28;;
12774;SDS011;6451;42.630;23.382;2024-02-23T10:35:43;4.07;;;2.70;;
12774;SDS011;6451;42.630;23.382;2024-02-23T10:38:12;3.50;;;2.83;;
12774;SDS011;6451;42.630;23.382;2024-02-23T10:40:47;3.45;;;3.10;;
12774;SDS011;6451;42.630;23.382;2024-02-23T10:43:21;5.05;;;3.10;;
12774;SDS011;6451;42.630;23.382;2024-02-23T10:45:59;3.58;;;2.88;;
12774;SDS011;6451;42.630;23.382;2024-02-23T10:48:33;3.28;;;2.80;;
12774;SDS011;6451;42.630;23.382;2024-02-23T10:51:05;3.67;;;2.80;;
12774;SDS011;6451;42.630;23.382;2024-02-23T10:53:44;3.63;;;3.00;;
12774;SDS011;6451;42.630;23.382;2024-02-23T10:56:18;3.60;;;2.78;;
12774;SDS011;6451;42.630;23.382;2024-02-23T10:59:08;4.97;;;2.55;;
12774;SDS011;6451;42.630;23.382;2024-02-23T11:01:46;4.40;;;2.55;;
12774;SDS011;6451;42.630;23.382;2024-02-23T11:04:39;3.40;;;2.60;;
12774;SDS011;6451;42.630;23.382;2024-02-23T11:07:22;2.92;;;2.40;;
12774;SDS011;6451;42.630;23.382;2024-02-23T11:09:53;2.42;;;2.20;;
12774;SDS011;6451;42.630;23.382;2024-02-23T11:12:33;3.03;;;2.50;;
12774;SDS011;6451;42.630;23.382;2024-02-23T11:15:29;3.13;;;2.70;;
12774;SDS011;6451;42.630;23.382;2024-02-23T11:18:28;3.40;;;2.40;;
12774;SDS011;6451;42.630;23.382;2024-02-23T11:21:12;2.45;;;2.25;;
12774;SDS011;6451;42.630;23.382;2024-02-23T11:24:01;2.70;;;2.17;;
12774;SDS011;6451;42.630;23.382;2024-02-23T11:26:37;5.85;;;2.47;;
12774;SDS011;6451;42.630;23.382;2024-02-23T11:29:25;4.05;;;2.67;;
12774;SDS011;6451;42.630;23.382;2024-02-23T11:32:19;3.33;;;2.63;;
12774;SDS011;6451;42.630;23.382;2024-02-23T11:34:56;3.30;;;2.30;;
12774;SDS011;6451;42.630;23.382;2024-02-23T11:41:07;6.00;;;2.65;;
12774;SDS011;6451;42.630;23.382;2024-02-23T11:43:55;2.58;;;2.20;;
12774;SDS011;6451;42.630;23.382;2024-02-23T11:46:41;2.10;;;1.90;;
12774;SDS011;6451;42.630;23.382;2024-02-23T11:49:21;2.38;;;2.17;;
12774;SDS011;6451;42.630;23.382;2024-02-23T11:52:01;3.78;;;2.10;;
12774;SDS011;6451;42.630;23.382;2024-02-23T11:54:40;3.28;;;2.22;;
12774;SDS011;6451;42.630;23.382;2024-02-23T11:57:15;2.33;;;2.13;;
12774;SDS011;6451;42.630;23.382;2024-02-23T11:59:55;4.85;;;2.10;;
12774;SDS011;6451;42.630;23.382;2024-02-23T12:02:42;2.80;;;2.10;;
12774;SDS011;6451;42.630;23.382;2024-02-23T12:05:21;2.20;;;1.90;;
12774;SDS011;6451;42.630;23.382;2024-02-23T12:07:56;2.40;;;2.20;;
12774;SDS011;6451;42.630;23.382;2024-02-23T12:10:34;2.05;;;1.85;;
12774;SDS011;6451;42.630;23.382;2024-02-23T12:13:19;3.47;;;1.90;;
12774;SDS011;6451;42.630;23.382;2024-02-23T12:16:02;2.92;;;2.05;;
12774;SDS011;6451;42.630;23.382;2024-02-23T12:18:38;4.70;;;2.50;;
12774;SDS011;6451;42.630;23.382;2024-02-23T12:21:08;4.25;;;2.28;;
12774;SDS011;6451;42.630;23.382;2024-02-23T12:23:52;4.95;;;2.40;;
12774;SDS011;6451;42.630;23.382;2024-02-23T12:26:34;2.10;;;1.90;;
12774;SDS011;6451;42.630;23.382;2024-02-23T12:29:13;3.80;;;2.35;;
12774;SDS011;6451;42.630;23.382;2024-02-23T12:32:03;3.08;;;2.35;;
12774;SDS011;6451;42.630;23.382;2024-02-23T12:34:37;3.72;;;2.50;;
12774;SDS011;6451;42.630;23.382;2024-02-23T12:37:19;2.58;;;2.25;;
12774;SDS011;6451;42.630;23.382;2024-02-23T12:39:57;3.67;;;2.45;;
12774;SDS011;6451;42.630;23.382;2024-02-23T12:42:34;2.58;;;1.80;;
12774;SDS011;6451;42.630;23.382;2024-02-23T12:45:14;3.10;;;2.00;;
12774;SDS011;6451;42.630;23.382;2024-02-23T12:47:52;2.60;;;2.20;;
12774;SDS011;6451;42.630;23.382;2024-02-23T12:50:27;2.35;;;1.92;;
12774;SDS011;6451;42.630;23.382;2024-02-23T12:56:02;2.20;;;2.00;;
12774;SDS011;6451;42.630;23.382;2024-02-23T12:58:59;2.08;;;1.83;;
12774;SDS011;6451;42.630;23.382;2024-02-23T13:01:29;2.30;;;1.92;;
12774;SDS011;6451;42.630;23.382;2024-02-23T13:04:05;2.30;;;2.08;;
12774;SDS011;6451;42.630;23.382;2024-02-23T13:06:43;2.30;;;2.10;;
12774;SDS011;6451;42.630;23.382;2024-02-23T13:09:30;3.90;;;2.10;;
12774;SDS011;6451;42.630;23.382;2024-02-23T13:12:28;4.05;;;2.40;;
12774;SDS011;6451;42.630;23.382;2024-02-23T13:15:26;3.13;;;2.03;;
12774;SDS011;6451;42.630;23.382;2024-02-23T13:18:10;3.33;;;1.95;;
12774;SDS011;6451;42.630;23.382;2024-02-23T13:20:50;2.72;;;2.17;;
12774;SDS011;6451;42.630;23.382;2024-02-23T13:23:27;3.05;;;2.17;;
12774;SDS011;6451;42.630;23.382;2024-02-23T13:26:14;3.17;;;2.40;;
12774;SDS011;6451;42.630;23.382;2024-02-23T13:28:54;7.38;;;2.80;;
12774;SDS011;6451;42.630;23.382;2024-02-23T13:31:29;2.97;;;2.60;;
12774;SDS011;6451;42.630;23.382;2024-02-23T13:34:27;3.08;;;2.35;;
12774;SDS011;6451;42.630;23.382;2024-02-23T13:37:11;3.35;;;2.28;;
12774;SDS011;6451;42.630;23.382;2024-02-23T13:40:01;4.65;;;2.15;;
12774;SDS011;6451;42.630;23.382;2024-02-23T13:42:41;3.33;;;2.10;;
12774;SDS011;6451;42.630;23.382;2024-02-23T13:45:15;1.80;;;1.70;;
12774;SDS011;6451;42.630;23.382;2024-02-23T13:51:21;2.60;;;2.03;;
12774;SDS011;6451;42.630;23.382;2024-02-23T13:54:03;2.53;;;2.33;;
12774;SDS011;6451;42.630;23.382;2024-02-23T13:56:38;6.57;;;2.53;;
12774;SDS011;6451;42.630;23.382;2024-02-23T13:59:09;2.63;;;2.33;;
12774;SDS011;6451;42.630;23.382;2024-02-23T14:01:39;2.53;;;2.30;;
12774;SDS011;6451;42.630;23.382;2024-02-23T14:04:18;2.50;;;2.30;;
12774;SDS011;6451;42.630;23.382;2024-02-23T14:06:54;5.70;;;2.20;;
12774;SDS011;6451;42.630;23.382;2024-02-23T14:09:27;3.45;;;2.17;;
12774;SDS011;6451;42.630;23.382;2024-02-23T14:12:00;2.88;;;2.05;;
12774;SDS011;6451;42.630;23.382;2024-02-23T14:14:32;2.38;;;2.17;;
12774;SDS011;6451;42.630;23.382;2024-02-23T14:17:02;2.78;;;2.30;;
12774;SDS011;6451;42.630;23.382;2024-02-23T14:19:45;4.15;;;2.30;;
12774;SDS011;6451;42.630;23.382;2024-02-23T14:22:28;2.35;;;2.15;;
12774;SDS011;6451;42.630;23.382;2024-02-23T14:25:03;2.33;;;2.13;;
12774;SDS011;6451;42.630;23.382;2024-02-23T14:27:41;2.17;;;1.90;;
12774;SDS011;6451;42.630;23.382;2024-02-23T14:30:39;3.63;;;2.70;;
12774;SDS011;6451;42.630;23.382;2024-02-23T14:33:11;2.78;;;2.30;;
12774;SDS011;6451;42.630;23.382;2024-02-23T14:35:48;4.80;;;2.35;;
12774;SDS011;6451;42.630;23.382;2024-02-23T14:38:32;4.40;;;2.40;;
12774;SDS011;6451;42.630;23.382;2024-02-23T14:41:04;2.47;;;2.25;;
12774;SDS011;6451;42.630;23.382;2024-02-23T14:43:51;2.55;;;2.05;;
12774;SDS011;6451;42.630;23.382;2024-02-23T14:46:37;2.25;;;2.05;;
12774;SDS011;6451;42.630;23.382;2024-02-23T14:49:17;3.30;;;2.90;;
12774;SDS011;6451;42.630;23.382;2024-02-23T14:51:52;2.50;;;2.30;;
12774;SDS011;6451;42.630;23.382;2024-02-23T14:54:31;2.78;;;2.47;;
12774;SDS011;6451;42.630;23.382;2024-02-23T14:57:02;4.05;;;2.40;;
12774;SDS011;6451;42.630;23.382;2024-02-23T14:59:35;4.05;;;2.35;;
12774;SDS011;6451;42.630;23.382;2024-02-23T15:02:21;2.50;;;2.30;;
12774;SDS011;6451;42.630;23.382;2024-02-23T15:04:58;4.05;;;2.50;;
12774;SDS011;6451;42.630;23.382;2024-02-23T15:07:27;2.83;;;2.38;;
12774;SDS011;6451;42.630;23.382;2024-02-23T15:10:05;2.45;;;2.25;;